Time;durP1;ratioP1;P1;durP2;ratioP2;P2;SDS_P1;SDS_P2;PMS_P1;PMS_P2;Temp;Humidity;BMP_temperature;BMP_pressure;BME280_temperature;BME280_humidity;BME280_pressure;Samples;Min_cycle;Max_cycle;Signal;HPM_P1;HPM_P2
2022/04/09 00:00:56;;;;;;;1.43;1.33;;;;;;;18.69;37.27;93692.66;5046508;28;20414;-75
2022/04/09 00:03:21;;;;;;;3.47;1.30;;;;;;;18.64;37.42;93679.41;5049762;28;20179;-75
2022/04/09 00:05:47;;;;;;;9.87;1.50;;;;;;;18.96;36.67;93673.78;5046449;28;20252;-75
2022/04/09 00:08:13;;;;;;;1.90;1.33;;;;;;;18.61;36.89;93674.63;5046228;28;20172;-75
2022/04/09 00:10:39;;;;;;;1.40;1.30;;;;;;;18.48;37.38;93676.78;5046592;28;20210;-75
2022/04/09 00:13:04;;;;;;;1.80;1.30;;;;;;;18.31;37.85;93677.06;5046642;28;20461;-74
2022/04/09 00:15:30;;;;;;;1.63;1.47;;;;;;;18.51;37.55;93681.53;5046417;28;20175;-75
2022/04/09 00:17:55;;;;;;;1.87;1.50;;;;;;;18.56;37.41;93680.75;5046081;28;20175;-75
2022/04/09 00:20:21;;;;;;;1.97;1.60;;;;;;;18.23;37.98;93679.44;5045990;28;20194;-74
2022/04/09 00:22:46;;;;;;;2.40;1.50;;;;;;;18.54;37.73;93670.41;5055893;28;20573;-74
2022/04/09 00:25:13;;;;;;;2.40;1.30;;;;;;;18.65;37.14;93678.38;5066290;28;20174;-74
2022/04/09 00:27:40;;;;;;;2.03;1.30;;;;;;;18.62;37.49;93681.53;5065557;28;20219;-74
2022/04/09 00:30:08;;;;;;;1.20;1.10;;;;;;;18.42;37.91;93672.56;5056425;28;20430;-74
2022/04/09 00:32:34;;;;;;;2.20;1.40;;;;;;;18.50;38.11;93668.59;5051944;28;20463;-74
2022/04/09 00:35:01;;;;;;;1.60;1.50;;;;;;;18.39;38.06;93670.44;5065890;28;20817;-73
2022/04/09 00:37:27;;;;;;;1.20;1.20;;;;;;;18.36;37.72;93657.72;5065615;28;20954;-74
2022/04/09 00:39:53;;;;;;;1.37;1.27;;;;;;;18.40;37.85;93657.97;5065841;28;20421;-75
2022/04/09 00:42:19;;;;;;;1.33;1.23;;;;;;;18.42;38.21;93661.97;5065800;28;20424;-74
2022/04/09 00:44:45;;;;;;;1.90;1.17;;;;;;;18.61;37.32;93664.84;5065933;28;20421;-74
2022/04/09 00:47:11;;;;;;;4.23;1.40;;;;;;;18.34;37.63;93660.66;5066413;28;20419;-74
2022/04/09 00:49:38;;;;;;;1.80;1.40;;;;;;;18.29;38.35;93655.34;5066058;28;20179;-74
2022/04/09 00:52:06;;;;;;;1.77;1.63;;;;;;;18.56;38.08;93656.91;5063868;28;20520;-74
2022/04/09 00:54:33;;;;;;;5.70;1.47;;;;;;;18.54;37.77;93646.56;5063769;28;20425;-75
2022/04/09 00:57:07;;;;;;;1.60;1.50;;;;;;;18.41;37.67;93652.41;5065645;28;20415;-74
2022/04/09 00:59:38;;;;;;;2.07;1.20;;;;;;;18.52;38.13;93635.44;5065719;28;20417;-74
2022/04/09 01:02:05;;;;;;;3.93;1.10;;;;;;;18.51;37.68;93644.44;5049485;28;20426;-74
2022/04/09 01:04:34;;;;;;;1.40;1.20;;;;;;;18.62;37.78;93642.56;5043972;28;20429;-74
2022/04/09 01:07:00;;;;;;;2.40;1.20;;;;;;;18.48;38.15;93636.25;5045410;28;20418;-75
2022/04/09 01:09:26;;;;;;;1.53;1.30;;;;;;;18.36;38.64;93636.53;5045321;28;20418;-74
2022/04/09 01:11:52;;;;;;;2.10;1.37;;;;;;;18.34;38.31;93630.69;5054316;28;20203;-74
2022/04/09 01:14:18;;;;;;;3.37;1.47;;;;;;;18.19;39.21;93620.91;5065160;28;20175;-74
2022/04/09 01:16:43;;;;;;;2.70;1.60;;;;;;;18.69;37.70;93621.09;5065002;28;20424;-75
2022/04/09 01:19:09;;;;;;;2.40;1.57;;;;;;;18.17;39.12;93622.25;5063820;28;20440;-74
2022/04/09 01:21:35;;;;;;;2.30;1.40;;;;;;;18.38;38.15;93615.84;5063778;28;20166;-74
2022/04/09 01:24:01;;;;;;;2.10;1.20;;;;;;;18.22;38.21;93606.38;5064987;28;20171;-74
2022/04/09 01:26:27;;;;;;;1.63;1.20;;;;;;;18.39;38.80;93620.09;5065184;28;20497;-74
2022/04/09 01:28:52;;;;;;;1.40;1.30;;;;;;;18.45;38.29;93618.25;5063635;28;20242;-74
2022/04/09 01:31:18;;;;;;;1.53;1.30;;;;;;;18.53;38.39;93612.38;5053566;28;20207;-75
2022/04/09 01:33:44;;;;;;;2.60;1.27;;;;;;;18.45;38.08;93616.38;5045247;28;20179;-75
2022/04/09 01:36:09;;;;;;;1.50;1.40;;;;;;;18.36;38.31;93615.34;5062868;28;20174;-75
2022/04/09 01:38:36;;;;;;;12.93;1.73;;;;;;;18.14;39.05;93618.31;5097270;28;20193;-75
2022/04/09 01:41:02;;;;;;;2.50;1.23;;;;;;;18.50;38.00;93613.72;5065161;28;20250;-74
2022/04/09 01:43:28;;;;;;;3.10;1.20;;;;;;;18.47;38.06;93622.19;5064790;28;20409;-75
2022/04/09 01:45:54;;;;;;;1.40;1.30;;;;;;;18.59;37.63;93616.63;5065153;28;20416;-75
2022/04/09 01:48:19;;;;;;;1.20;1.10;;;;;;;18.69;37.66;93613.16;5064877;28;20209;-74
2022/04/09 01:50:45;;;;;;;2.60;1.20;;;;;;;18.47;37.74;93626.72;5064742;28;20238;-73
2022/04/09 01:53:11;;;;;;;1.23;1.13;;;;;;;18.35;38.04;93634.97;5064875;28;20190;-74
2022/04/09 01:55:37;;;;;;;1.80;1.10;;;;;;;18.44;38.25;93630.69;5064774;28;20463;-74
2022/04/09 01:58:03;;;;;;;4.10;2.13;;;;;;;17.47;40.71;93638.59;5064902;28;20558;-74
2022/04/09 02:00:29;;;;;;;2.50;2.00;;;;;;;17.97;40.16;93644.25;5064920;28;20429;-74
2022/04/09 02:02:55;;;;;;;2.27;2.07;;;;;;;17.17;41.48;93633.00;5064680;28;20408;-74
2022/04/09 02:05:20;;;;;;;2.83;2.50;;;;;;;17.39;40.83;93642.56;5066537;28;20181;-74
2022/04/09 02:07:49;;;;;;;5.13;2.10;;;;;;;17.33;41.16;93631.19;5068215;28;20186;-74
2022/04/09 02:10:16;;;;;;;6.10;1.80;;;;;;;17.70;40.74;93640.78;5068631;28;20221;-75
2022/04/09 02:12:42;;;;;;;3.93;2.57;;;;;;;17.73;40.88;93632.28;5068538;28;20453;-75
2022/04/09 02:15:10;;;;;;;5.23;2.53;;;;;;;17.80;40.56;93634.69;5068423;28;20765;-75
2022/04/09 02:17:38;;;;;;;2.63;2.40;;;;;;;17.52;40.93;93649.22;5067981;28;20417;-75
2022/04/09 02:20:08;;;;;;;2.00;1.83;;;;;;;17.28;41.81;93631.19;5068383;28;20425;-74
2022/04/09 02:22:35;;;;;;;3.63;2.10;;;;;;;17.17;42.11;93637.50;5066793;28;20439;-74
2022/04/09 02:25:02;;;;;;;1.70;1.60;;;;;;;17.39;41.60;93633.84;5066912;28;20417;-75
2022/04/09 02:27:27;;;;;;;2.20;1.77;;;;;;;16.81;42.50;93626.78;5056551;28;20478;-74
2022/04/09 02:29:52;;;;;;;2.10;1.80;;;;;;;16.98;42.53;93634.53;5048483;28;20452;-74
2022/04/09 02:32:18;;;;;;;3.83;1.93;;;;;;;17.41;41.76;93632.50;5064877;28;20243;-75
2022/04/09 02:34:43;;;;;;;2.23;1.90;;;;;;;16.39;43.34;93632.91;5088194;28;20178;-74
2022/04/09 02:37:09;;;;;;;2.90;2.33;;;;;;;17.03;42.28;93631.88;5081048;28;20193;-74
2022/04/09 02:39:34;;;;;;;2.20;1.60;;;;;;;17.16;42.09;93628.75;5068182;28;20509;-75
2022/04/09 02:42:00;;;;;;;2.40;1.90;;;;;;;17.19;41.81;93627.47;5068230;28;20163;-75
2022/04/09 02:44:25;;;;;;;2.00;1.80;;;;;;;16.93;42.29;93614.16;5067872;28;20178;-75
2022/04/09 02:46:51;;;;;;;2.90;1.67;;;;;;;16.87;42.30;93615.19;5067790;28;20181;-75
2022/04/09 02:49:16;;;;;;;4.00;2.03;;;;;;;16.98;42.21;93611.53;5067736;28;20194;-74
2022/04/09 02:51:43;;;;;;;2.67;1.80;;;;;;;17.10;41.96;93615.81;5067512;28;20214;-75
2022/04/09 02:54:15;;;;;;;1.83;1.60;;;;;;;17.68;40.53;93627.00;5067584;28;20234;-74
2022/04/09 02:56:42;;;;;;;1.80;1.50;;;;;;;17.41;40.78;93613.22;5067798;28;20413;-75
2022/04/09 02:59:08;;;;;;;3.00;1.70;;;;;;;17.53;41.12;93616.44;5067468;28;20737;-75
2022/04/09 03:01:34;;;;;;;2.10;2.00;;;;;;;17.27;41.56;93611.06;5057187;28;20433;-74
2022/04/09 03:03:59;;;;;;;2.20;2.00;;;;;;;17.66;40.74;93612.44;5079395;28;20426;-75
2022/04/09 03:06:25;;;;;;;4.97;1.50;;;;;;;17.53;41.21;93605.84;5047435;28;20183;-75
2022/04/09 03:08:50;;;;;;;2.80;1.97;;;;;;;17.21;41.59;93606.84;5047361;28;20234;-75
2022/04/09 03:11:15;;;;;;;1.70;1.53;;;;;;;17.22;41.40;93608.41;5047056;28;20228;-75
2022/04/09 03:13:41;;;;;;;2.37;2.17;;;;;;;17.21;41.85;93616.63;5047199;28;20178;-74
2022/04/09 03:16:06;;;;;;;1.77;1.30;;;;;;;17.11;42.15;93618.19;5046951;28;20210;-75
2022/04/09 03:18:32;;;;;;;3.93;1.67;;;;;;;16.96;42.60;93613.63;5047304;28;20239;-74
2022/04/09 03:20:57;;;;;;;2.23;2.00;;;;;;;16.93;42.89;93621.28;5047271;28;20195;-74
2022/04/09 03:23:23;;;;;;;5.73;2.73;;;;;;;16.77;43.42;93617.78;5047623;28;20230;-75
2022/04/09 03:25:48;;;;;;;3.20;2.90;;;;;;;16.08;44.82;93610.78;5060579;28;20221;-74
2022/04/09 03:28:14;;;;;;;4.10;2.67;;;;;;;16.55;44.25;93616.06;5067124;28;20214;-74
2022/04/09 03:30:42;;;;;;;2.00;1.90;;;;;;;16.46;44.04;93611.53;5067136;28;20264;-74
2022/04/09 03:33:07;;;;;;;3.17;1.90;;;;;;;15.82;45.76;93613.22;5080709;28;20537;-74
2022/04/09 03:35:33;;;;;;;3.17;2.43;;;;;;;16.09;45.06;93617.66;5064659;28;20434;-74
2022/04/09 03:37:59;;;;;;;3.43;2.07;;;;;;;16.02;45.39;93617.09;5046803;28;20172;-74
2022/04/09 03:40:24;;;;;;;2.60;2.40;;;;;;;15.87;46.04;93615.91;5046999;28;20485;-74
2022/04/09 03:42:50;;;;;;;3.17;2.37;;;;;;;15.68;46.75;93618.13;5046818;28;20635;-74
2022/04/09 03:45:15;;;;;;;2.53;2.33;;;;;;;15.14;47.77;93618.13;5047007;28;20175;-75
2022/04/09 03:47:41;;;;;;;3.87;3.27;;;;;;;15.34;47.16;93618.34;5046717;28;20172;-74
2022/04/09 03:50:06;;;;;;;3.10;2.67;;;;;;;15.60;46.46;93621.22;5046620;28;20171;-74
2022/04/09 03:52:32;;;;;;;3.23;2.40;;;;;;;16.03;45.70;93624.75;5046667;28;20199;-74
2022/04/09 03:54:57;;;;;;;4.73;3.63;;;;;;;15.58;46.29;93618.03;5057584;28;20433;-75
2022/04/09 03:57:23;;;;;;;3.80;3.40;;;;;;;15.48;46.83;93628.47;5066543;28;20234;-75
2022/04/09 03:59:51;;;;;;;9.67;4.77;;;;;;;15.47;46.73;93629.53;5066444;28;20181;-74
2022/04/09 04:02:17;;;;;;;8.73;3.90;;;;;;;15.51;46.54;93622.72;5066181;28;20238;-75
2022/04/09 04:04:43;;;;;;;5.07;3.40;;;;;;;15.34;47.83;93618.34;5066384;28;20425;-75
2022/04/09 04:07:09;;;;;;;6.83;3.57;;;;;;;15.14;47.84;93623.41;5066244;28;20181;-74
2022/04/09 04:09:36;;;;;;;6.93;3.80;;;;;;;15.56;46.78;93622.78;5065321;28;20182;-75
2022/04/09 04:12:01;;;;;;;3.40;2.23;;;;;;;15.64;46.23;93617.03;5066246;28;20453;-74
2022/04/09 04:14:28;;;;;;;3.07;2.27;;;;;;;15.55;47.11;93618.53;5066243;28;20431;-74
2022/04/09 04:16:54;;;;;;;2.37;2.27;;;;;;;15.45;47.16;93623.72;5065935;28;20242;-74
2022/04/09 04:19:19;;;;;;;3.47;2.67;;;;;;;15.53;47.08;93631.16;5064481;28;20776;-74
2022/04/09 04:21:44;;;;;;;8.10;3.30;;;;;;;15.57;47.08;93633.03;5065180;28;20183;-75
2022/04/09 04:24:10;;;;;;;4.07;2.83;;;;;;;15.82;46.31;93623.78;5065861;28;20258;-75
2022/04/09 04:26:36;;;;;;;12.33;4.93;;;;;;;15.35;47.43;93624.41;5065626;28;20185;-75
2022/04/09 04:29:01;;;;;;;12.60;6.00;;;;;;;15.57;46.80;93621.72;5063808;28;20276;-74
2022/04/09 04:31:27;;;;;;;8.87;6.50;;;;;;;15.85;46.82;93619.88;5065157;28;20472;-75
2022/04/09 04:33:52;;;;;;;7.60;4.83;;;;;;;15.65;46.89;93608.09;5065910;28;20230;-74
2022/04/09 04:36:17;;;;;;;4.23;2.97;;;;;;;15.69;46.75;93613.63;5065680;28;20293;-75
2022/04/09 04:38:43;;;;;;;5.80;4.37;;;;;;;15.67;46.40;93616.53;5065735;28;20231;-75
2022/04/09 04:41:09;;;;;;;5.10;3.80;;;;;;;16.01;46.20;93626.81;5064784;28;20182;-75
2022/04/09 04:43:34;;;;;;;4.70;3.63;;;;;;;16.22;45.54;93625.16;5065578;28;20444;-74
2022/04/09 04:46:00;;;;;;;4.27;3.73;;;;;;;16.20;45.38;93620.13;5064364;28;20182;-75
2022/04/09 04:48:25;;;;;;;4.70;4.30;;;;;;;16.72;44.69;93620.38;5064142;28;20170;-74
2022/04/09 04:50:51;;;;;;;7.57;3.87;;;;;;;16.25;45.26;93610.63;5065103;28;20178;-74
2022/04/09 04:53:16;;;;;;;4.80;3.17;;;;;;;15.91;45.75;93614.34;5065178;28;20202;-74
2022/04/09 04:55:42;;;;;;;3.80;3.50;;;;;;;16.34;45.32;93603.81;5065463;28;20194;-74
2022/04/09 04:58:07;;;;;;;7.40;3.93;;;;;;;16.72;44.16;93610.59;5064965;28;20206;-75
2022/04/09 05:00:33;;;;;;;8.03;4.03;;;;;;;16.63;44.70;93600.78;5057816;28;20508;-74
2022/04/09 05:02:59;;;;;;;7.87;4.10;;;;;;;16.35;45.10;93585.09;5043788;28;20179;-75
2022/04/09 05:05:25;;;;;;;4.87;3.30;;;;;;;16.65;44.94;93585.47;5045320;28;20179;-75
2022/04/09 05:07:52;;;;;;;4.57;3.70;;;;;;;17.18;43.25;93591.50;5045289;28;20424;-75
2022/04/09 05:10:22;;;;;;;12.03;3.97;;;;;;;16.97;43.61;93586.16;5048751;28;20444;-74
2022/04/09 05:12:49;;;;;;;5.20;2.97;;;;;;;17.03;43.50;93589.59;5065198;28;20445;-75
2022/04/09 05:15:16;;;;;;;4.50;3.60;;;;;;;17.37;43.04;93600.50;5065241;28;20498;-74
2022/04/09 05:17:42;;;;;;;5.10;3.53;;;;;;;17.54;42.45;93594.19;5064459;28;20425;-74
2022/04/09 05:20:14;;;;;;;6.10;3.50;;;;;;;17.56;42.34;93592.06;5063972;28;20429;-74
2022/04/09 05:22:43;;;;;;;3.93;3.03;;;;;;;17.68;42.31;93592.63;5064878;28;20420;-75
2022/04/09 05:25:10;;;;;;;3.77;3.27;;;;;;;18.04;41.45;93592.63;5065131;28;20428;-75
2022/04/09 05:27:37;;;;;;;4.67;4.27;;;;;;;18.42;40.41;93586.97;5064580;28;20523;-74
2022/04/09 05:30:04;;;;;;;4.53;3.23;;;;;;;18.67;40.21;93578.19;5063853;28;20442;-75
2022/04/09 05:32:30;;;;;;;5.23;4.50;;;;;;;18.80;39.32;93577.63;5064815;28;20921;-74
2022/04/09 05:34:56;;;;;;;3.60;2.93;;;;;;;18.96;39.75;93577.56;5071314;28;20539;-74
2022/04/09 05:37:21;;;;;;;3.47;2.97;;;;;;;19.14;39.28;93582.22;5065022;28;20261;-74
2022/04/09 05:39:47;;;;;;;5.73;2.77;;;;;;;19.26;38.74;93577.38;5064030;28;20440;-74
2022/04/09 05:42:12;;;;;;;2.67;2.47;;;;;;;18.47;40.36;93585.09;5069041;28;20244;-74
2022/04/09 05:44:38;;;;;;;2.87;2.37;;;;;;;19.41;38.33;93575.69;5069266;28;20641;-74
2022/04/09 05:47:04;;;;;;;5.63;3.00;;;;;;;19.68;38.13;93586.63;5068859;28;20213;-75
2022/04/09 05:49:29;;;;;;;2.20;2.00;;;;;;;19.43;38.28;93584.19;5067323;28;20635;-74
2022/04/09 05:51:55;;;;;;;3.70;2.30;;;;;;;19.68;37.72;93585.84;5068432;28;20232;-74
2022/04/09 05:54:20;;;;;;;6.83;3.83;;;;;;;19.95;37.64;93582.72;5068761;28;20166;-74
2022/04/09 05:56:46;;;;;;;5.40;3.17;;;;;;;19.83;37.65;93585.75;5069053;28;20202;-74
2022/04/09 05:59:12;;;;;;;5.33;2.37;;;;;;;19.35;38.25;93590.06;5065703;28;20183;-74
2022/04/09 06:01:37;;;;;;;5.53;2.80;;;;;;;19.72;37.69;93589.56;5069469;28;20171;-74
2022/04/09 06:04:03;;;;;;;4.63;2.90;;;;;;;19.99;37.16;93586.41;5068584;28;20430;-74
2022/04/09 06:06:28;;;;;;;3.63;3.33;;;;;;;19.93;37.36;93584.88;5068301;28;20174;-74
2022/04/09 06:08:54;;;;;;;6.50;3.20;;;;;;;20.13;37.03;93591.06;5067801;28;20178;-75
2022/04/09 06:11:20;;;;;;;5.10;2.93;;;;;;;20.58;36.18;93587.19;5067499;28;20202;-74
2022/04/09 06:13:45;;;;;;;4.53;3.20;;;;;;;20.25;36.56;93589.63;5068749;28;20427;-74
2022/04/09 06:16:11;;;;;;;2.90;1.90;;;;;;;20.21;36.60;93583.31;5068377;28;20701;-75
2022/04/09 06:18:38;;;;;;;4.07;2.80;;;;;;;20.17;36.86;93582.28;5068354;28;20261;-73
2022/04/09 06:21:06;;;;;;;6.83;3.07;;;;;;;20.55;36.33;93579.75;5067004;28;20241;-74
2022/04/09 06:23:31;;;;;;;5.03;2.30;;;;;;;20.02;37.03;93574.47;5066965;28;20487;-75
2022/04/09 06:25:57;;;;;;;3.53;3.23;;;;;;;19.98;37.20;93576.88;5068161;28;20421;-74
2022/04/09 06:28:24;;;;;;;5.67;3.27;;;;;;;20.24;37.05;93572.13;5067926;28;20301;-74
2022/04/09 06:30:52;;;;;;;5.23;3.53;;;;;;;20.37;36.76;93578.59;5067722;28;20953;-74
2022/04/09 06:33:18;;;;;;;5.37;3.30;;;;;;;20.19;37.37;93582.00;5067486;28;20456;-75
2022/04/09 06:35:44;;;;;;;5.20;3.27;;;;;;;20.40;36.78;93585.25;5058301;28;20809;-75
2022/04/09 06:38:10;;;;;;;7.97;3.70;;;;;;;20.66;36.27;93585.81;5047999;28;20171;-75
2022/04/09 06:40:35;;;;;;;11.23;3.40;;;;;;;20.41;36.63;93592.94;5048100;28;20175;-74
2022/04/09 06:43:00;;;;;;;6.77;3.00;;;;;;;20.60;36.64;93590.38;5047998;28;20180;-74
2022/04/09 06:45:28;;;;;;;7.63;3.43;;;;;;;19.86;37.70;93592.38;5047805;28;20172;-75
2022/04/09 06:47:54;;;;;;;7.27;3.10;;;;;;;19.62;38.18;93598.38;5047998;28;20233;-75
2022/04/09 06:50:19;;;;;;;8.47;4.17;;;;;;;20.60;36.80;93594.88;5079415;28;20433;-74
2022/04/09 06:52:45;;;;;;;7.60;2.97;;;;;;;20.92;35.53;93588.13;5047822;28;20237;-75
2022/04/09 06:55:11;;;;;;;12.87;3.90;;;;;;;21.21;35.25;93588.84;5060538;28;20178;-75
2022/04/09 06:57:38;;;;;;;7.20;3.20;;;;;;;21.04;35.45;93589.31;5067274;28;20187;-75
2022/04/09 07:00:07;;;;;;;6.20;4.70;;;;;;;19.97;37.53;93585.91;5068107;28;20576;-75
2022/04/09 07:02:33;;;;;;;7.90;3.63;;;;;;;20.83;36.26;93599.41;5067467;28;20420;-75
2022/04/09 07:04:58;;;;;;;4.83;2.77;;;;;;;21.31;35.28;93587.91;5057645;28;20433;-75
2022/04/09 07:07:25;;;;;;;7.00;3.27;;;;;;;20.90;36.01;93584.97;5062759;28;20437;-75
2022/04/09 07:09:52;;;;;;;9.10;3.90;;;;;;;;;;5067921;28;20166;-75
2022/04/09 07:12:18;;;;;;;5.10;3.60;;;;;;;21.09;35.60;93588.44;5067484;28;20525;-75
2022/04/09 07:14:43;;;;;;;5.50;3.27;;;;;;;21.34;35.14;93579.34;5067682;28;20459;-75
2022/04/09 07:17:09;;;;;;;8.23;4.00;;;;;;;21.96;34.29;93587.22;5065194;28;20179;-75
2022/04/09 07:19:34;;;;;;;6.00;3.63;;;;;;;22.57;33.42;93579.25;5066047;28;20174;-75
2022/04/09 07:22:00;;;;;;;3.50;3.23;;;;;;;21.86;34.60;93582.06;5067386;28;20181;-75
2022/04/09 07:24:26;;;;;;;4.37;3.67;;;;;;;21.20;35.58;93578.47;5067394;28;20194;-76
2022/04/09 07:26:52;;;;;;;6.67;3.37;;;;;;;21.64;34.83;93577.31;5066615;28;20552;-75
2022/04/09 07:29:17;;;;;;;13.13;3.40;;;;;;;20.82;36.22;93576.56;5067514;28;20183;-75
2022/04/09 07:31:43;;;;;;;3.57;2.50;;;;;;;21.10;36.16;93573.31;5067052;28;20198;-75
2022/04/09 07:34:08;;;;;;;6.73;2.93;;;;;;;21.32;36.22;93567.41;5074553;28;20196;-74
2022/04/09 07:36:33;;;;;;;6.47;3.70;;;;;;;22.02;34.46;93570.06;5087161;28;20185;-74
2022/04/09 07:38:59;;;;;;;5.27;3.97;;;;;;;22.46;33.94;93569.84;5086889;28;20173;-75
2022/04/09 07:41:25;;;;;;;11.60;3.60;;;;;;;22.62;33.31;93568.50;5085622;28;20184;-75
2022/04/09 07:43:50;;;;;;;7.57;3.40;;;;;;;22.68;32.63;93567.31;5085710;28;20173;-75
2022/04/09 07:46:16;;;;;;;8.10;5.73;;;;;;;22.56;33.03;93564.34;5068781;28;20197;-75
2022/04/09 07:48:41;;;;;;;12.50;4.27;;;;;;;22.49;33.04;93572.72;5067068;28;20178;-75
2022/04/09 07:51:07;;;;;;;8.70;4.53;;;;;;;22.58;33.29;93564.84;5066345;28;20179;-75
2022/04/09 07:53:32;;;;;;;8.17;3.90;;;;;;;22.34;33.72;93571.13;5066622;28;20238;-75
2022/04/09 07:55:58;;;;;;;10.00;4.70;;;;;;;22.07;34.03;93561.19;5047302;28;20180;-75
2022/04/09 07:58:23;;;;;;;7.23;3.77;;;;;;;22.07;33.87;93565.75;5046842;28;20661;-75
2022/04/09 08:00:50;;;;;;;6.20;3.83;;;;;;;22.72;33.31;93570.16;5045313;28;20191;-75
2022/04/09 08:03:15;;;;;;;9.47;4.00;;;;;;;22.56;33.61;93561.69;5044253;28;20202;-75
2022/04/09 08:05:42;;;;;;;9.30;3.67;;;;;;;23.05;33.03;93554.88;5062516;28;20420;-75
2022/04/09 08:08:08;;;;;;;5.17;4.63;;;;;;;23.62;32.20;93557.06;5066681;28;20244;-75
2022/04/09 08:10:34;;;;;;;4.87;3.53;;;;;;;24.01;31.50;93549.50;5065560;28;20409;-75
2022/04/09 08:13:01;;;;;;;7.57;3.30;;;;;;;24.04;31.22;93554.25;5066418;28;20465;-75
2022/04/09 08:15:26;;;;;;;7.37;4.10;;;;;;;24.05;31.13;93548.56;5066526;28;20414;-75
2022/04/09 08:17:54;;;;;;;9.37;3.40;;;;;;;24.21;31.13;93548.97;5066403;28;20457;-75
2022/04/09 08:20:21;;;;;;;3.30;3.00;;;;;;;24.59;30.17;93545.88;5066280;28;20238;-75
2022/04/09 08:22:47;;;;;;;7.27;3.63;;;;;;;24.96;29.31;93548.34;5052235;28;20452;-75
2022/04/09 08:25:13;;;;;;;7.90;4.10;;;;;;;25.11;29.11;93542.53;5046156;28;20438;-75
2022/04/09 08:27:38;;;;;;;3.13;2.83;;;;;;;25.32;29.06;93543.53;5046164;28;20466;-75
2022/04/09 08:30:08;;;;;;;5.33;3.20;;;;;;;25.54;28.91;93533.00;5046476;28;20176;-76
2022/04/09 08:32:34;;;;;;;7.10;2.50;;;;;;;26.14;27.95;93534.03;5064439;28;20196;-75
2022/04/09 08:35:00;;;;;;;6.17;2.33;;;;;;;26.18;27.08;93533.06;5056837;28;20489;-75
2022/04/09 08:37:26;;;;;;;3.03;2.60;;;;;;;26.08;27.16;93526.13;5085767;28;20841;-75
2022/04/09 08:39:51;;;;;;;3.63;2.13;;;;;;;25.46;28.09;93516.59;5085921;28;20197;-75
2022/04/09 08:42:17;;;;;;;7.90;2.90;;;;;;;24.55;29.56;93524.31;5076166;28;20175;-76
2022/04/09 08:44:43;;;;;;;6.70;2.40;;;;;;;24.47;29.30;93529.56;5065692;28;20178;-75
2022/04/09 08:47:12;;;;;;;2.43;2.17;;;;;;;24.24;29.43;93516.25;5064409;28;20420;-75
2022/04/09 08:49:46;;;;;;;2.30;2.10;;;;;;;24.96;28.09;93503.59;5065914;28;20171;-75
2022/04/09 08:52:12;;;;;;;6.10;2.80;;;;;;;25.67;27.59;93530.13;5065665;28;20442;-75
2022/04/09 08:54:38;;;;;;;3.70;1.93;;;;;;;25.66;27.28;93530.44;5065907;28;20424;-75
2022/04/09 08:57:05;;;;;;;4.70;2.30;;;;;;;25.30;28.02;93521.63;5065590;28;20413;-75
2022/04/09 08:59:31;;;;;;;3.90;2.43;;;;;;;25.40;28.33;93523.22;5065329;28;20492;-75
2022/04/09 09:01:57;;;;;;;5.47;3.40;;;;;;;26.36;26.69;93520.38;5065288;28;20413;-75
2022/04/09 09:04:23;;;;;;;5.27;1.60;;;;;;;25.43;27.26;93522.56;5064442;28;20457;-75
2022/04/09 09:06:49;;;;;;;3.27;1.63;;;;;;;25.94;26.51;93514.81;5065819;28;20436;-75
2022/04/09 09:09:31;;;;;;;2.90;1.63;;;;;;;25.40;27.47;93512.50;5063582;28;20190;-75
2022/04/09 09:11:59;;;;;;;1.50;1.40;;;;;;;25.30;27.14;93512.81;5064201;28;20198;-76
2022/04/09 09:14:32;;;;;;;4.80;1.50;;;;;;;24.56;28.35;93514.38;5064011;28;20440;-75
2022/04/09 09:16:59;;;;;;;4.60;1.80;;;;;;;24.93;28.05;93514.97;5063980;28;20525;-75
2022/04/09 09:19:47;;;;;;;3.23;1.87;;;;;;;25.64;26.74;93516.59;5064340;28;20486;-75
2022/04/09 09:22:13;;;;;;;3.90;1.70;;;;;;;25.96;25.98;93515.28;5064942;28;20412;-75
2022/04/09 09:24:39;;;;;;;2.13;1.50;;;;;;;26.12;26.09;93510.19;5064512;28;20429;-75
2022/04/09 09:27:05;;;;;;;1.20;1.10;;;;;;;25.39;26.54;93512.81;5064686;28;20490;-75
2022/04/09 09:29:32;;;;;;;5.27;2.07;;;;;;;24.60;27.62;93507.31;5062930;28;20178;-75
2022/04/09 09:32:03;;;;;;;2.10;1.40;;;;;;;24.36;27.94;93503.13;5064773;28;20475;-75
2022/04/09 09:34:29;;;;;;;3.80;2.00;;;;;;;24.62;27.49;93505.09;5064936;28;20459;-75
2022/04/09 09:36:55;;;;;;;8.57;1.60;;;;;;;24.22;27.52;93494.41;5063178;28;21031;-76
2022/04/09 09:39:25;;;;;;;0.93;0.70;;;;;;;23.56;28.04;93492.31;5062071;28;20238;-75
2022/04/09 09:41:55;;;;;;;4.87;2.03;;;;;;;24.53;27.79;93480.25;5045053;28;20410;-75
2022/04/09 09:44:23;;;;;;;1.57;1.20;;;;;;;24.35;27.74;93482.03;5044996;28;20432;-75
2022/04/09 09:46:50;;;;;;;4.53;1.27;;;;;;;25.11;25.85;93495.13;5044682;28;20418;-75
2022/04/09 09:49:17;;;;;;;1.60;1.50;;;;;;;25.25;24.32;93494.22;5046342;28;20434;-75
2022/04/09 09:51:43;;;;;;;1.33;1.23;;;;;;;24.96;25.67;93484.88;5064741;28;20449;-75
2022/04/09 09:54:13;;;;;;;1.63;1.53;;;;;;;26.10;25.68;93481.03;5064401;28;20424;-75
2022/04/09 09:56:44;;;;;;;3.10;2.17;;;;;;;26.45;25.00;93480.13;5063398;28;20413;-75
2022/04/09 09:59:14;;;;;;;1.70;1.23;;;;;;;25.65;24.90;93472.59;5063369;28;20436;-75
2022/04/09 10:01:48;;;;;;;4.67;2.50;;;;;;;25.68;25.03;93475.41;5044953;28;20420;-75
2022/04/09 10:04:14;;;;;;;1.60;1.50;;;;;;;25.70;25.16;93472.44;5045288;28;20947;-75
2022/04/09 10:06:45;;;;;;;1.40;1.30;;;;;;;25.76;25.03;93486.44;5056164;28;20429;-75
2022/04/09 10:09:14;;;;;;;2.00;1.20;;;;;;;26.61;23.85;93480.38;5064819;28;20182;-75
2022/04/09 10:11:46;;;;;;;1.47;1.10;;;;;;;25.95;24.29;93476.16;5046312;28;20457;-75
2022/04/09 10:14:14;;;;;;;2.30;1.77;;;;;;;25.92;25.20;93473.38;5044566;28;20430;-75
2022/04/09 10:16:43;;;;;;;4.10;1.40;;;;;;;25.74;25.34;93470.69;5044496;28;20437;-75
2022/04/09 10:19:10;;;;;;;3.03;1.33;;;;;;;26.39;24.44;93467.97;5044495;28;20430;-75
2022/04/09 10:21:40;;;;;;;3.20;2.00;;;;;;;26.49;24.75;93460.34;5043368;28;20426;-75
2022/04/09 10:24:14;;;;;;;3.67;1.50;;;;;;;25.65;25.17;93473.41;5044661;28;20484;-75
2022/04/09 10:26:41;;;;;;;2.40;1.30;;;;;;;26.39;24.29;93470.66;5083235;28;20401;-76
2022/04/09 10:29:08;;;;;;;1.27;1.17;;;;;;;27.04;23.04;93472.03;5068374;28;20452;-75
2022/04/09 10:31:41;;;;;;;2.70;1.57;;;;;;;26.80;23.72;93458.47;5068367;28;20514;-75
2022/04/09 10:34:12;;;;;;;3.33;1.10;;;;;;;26.97;23.68;93458.34;5068424;28;20452;-75
2022/04/09 10:36:40;;;;;;;5.60;1.40;;;;;;;26.57;23.90;93455.25;5068486;28;20616;-75
2022/04/09 10:39:41;;;;;;;2.67;1.30;;;;;;;25.99;24.92;93458.38;5067491;28;20603;-75
2022/04/09 10:42:07;;;;;;;5.50;1.23;;;;;;;26.10;24.13;93462.28;5068126;28;20393;-75
2022/04/09 10:44:51;;;;;;;1.43;1.33;;;;;;;26.85;23.10;93447.53;5068435;28;20512;-75
2022/04/09 10:47:18;;;;;;;3.10;1.50;;;;;;;26.98;23.24;93453.78;5066763;28;20413;-75
2022/04/09 10:50:05;;;;;;;2.13;1.40;;;;;;;26.63;23.87;93446.72;5067174;28;20494;-75
2022/04/09 10:52:32;;;;;;;4.00;1.87;;;;;;;26.41;24.46;93436.25;5064110;28;20487;-75
2022/04/09 10:55:10;;;;;;;1.13;1.03;;;;;;;25.59;25.05;93445.19;5068058;28;20896;-75
2022/04/09 10:57:47;;;;;;;2.80;1.30;;;;;;;26.51;23.81;93433.19;5067721;28;20499;-77
2022/04/09 11:00:26;;;;;;;2.40;1.23;;;;;;;27.06;22.90;93439.50;5051901;28;20874;-74
2022/04/09 11:03:05;;;;;;;2.00;1.20;;;;;;;26.42;24.28;93438.59;5046747;28;20479;-75
2022/04/09 11:05:30;;;;;;;2.43;1.20;;;;;;;26.72;23.90;93430.56;5048157;28;20461;-75
2022/04/09 11:08:14;;;;;;;1.80;1.30;;;;;;;27.48;22.01;93412.59;5047826;28;20414;-75
2022/04/09 11:10:44;;;;;;;3.93;1.20;;;;;;;27.07;23.09;93417.69;5066201;28;20185;-75
2022/04/09 11:13:12;;;;;;;4.07;1.40;;;;;;;27.30;21.99;93417.38;5067794;28;20457;-76
2022/04/09 11:15:43;;;;;;;1.67;1.00;;;;;;;26.05;22.66;93418.75;5067754;28;20425;-76
2022/04/09 11:18:09;;;;;;;1.50;1.20;;;;;;;26.62;22.57;93409.50;5067366;28;20393;-75
2022/04/09 11:20:36;;;;;;;2.77;1.73;;;;;;;26.64;22.43;93402.69;5067728;28;20523;-75
2022/04/09 11:23:19;;;;;;;6.30;1.67;;;;;;;27.27;21.98;93401.91;5067094;28;20473;-75
2022/04/09 11:25:46;;;;;;;3.23;3.00;;;;;;;27.20;21.61;93402.38;5067200;28;20416;-75
2022/04/09 11:28:14;;;;;;;1.43;1.20;;;;;;;26.95;21.90;93390.75;5066979;28;20453;-75
2022/04/09 11:30:58;;;;;;;4.80;2.83;;;;;;;27.46;21.91;93382.59;5067534;28;20451;-75
2022/04/09 11:33:23;;;;;;;4.50;3.37;;;;;;;26.86;21.84;93388.16;5067356;28;20452;-75